createdAt,value
2023-05-02T00:02:12.489Z,12.02
2023-05-02T00:04:41.052Z,11.98
2023-05-02T00:07:13.977Z,11.96
2023-05-02T00:09:43.635Z,11.87
2023-05-02T00:12:11.601Z,11.78
2023-05-02T00:14:40.290Z,11.74
2023-05-02T00:17:08.822Z,11.72
2023-05-02T00:19:39.373Z,11.69
2023-05-02T00:22:07.652Z,11.64
2023-05-02T00:24:36.396Z,11.54
2023-05-02T00:27:06.383Z,11.43
2023-05-02T00:29:34.417Z,11.29
2023-05-02T00:32:02.514Z,11.18
2023-05-02T00:34:30.884Z,11.07
2023-05-02T00:36:59.231Z,10.97
2023-05-02T00:39:27.251Z,10.98
2023-05-02T00:41:57.637Z,10.97
2023-05-02T00:44:27.351Z,10.86
2023-05-02T00:46:55.770Z,10.75
2023-05-02T00:49:23.723Z,10.67
2023-05-02T00:51:51.693Z,10.57
2023-05-02T00:54:19.981Z,10.56
2023-05-02T00:56:48.500Z,10.51
2023-05-02T00:59:17.009Z,10.44
2023-05-02T01:01:51.415Z,10.37
2023-05-02T01:04:24.343Z,10.25
2023-05-02T01:07:00.886Z,10.11
2023-05-02T01:09:35.673Z,9.99
2023-05-02T01:12:05.896Z,9.90
2023-05-02T01:14:35.862Z,9.84
2023-05-02T01:17:19.917Z,9.83
2023-05-02T01:19:52.264Z,9.80
2023-05-02T01:22:21.121Z,9.74
2023-05-02T01:24:55.371Z,9.68
2023-05-02T01:27:29.153Z,9.66
2023-05-02T01:30:03.022Z,9.60
2023-05-02T01:32:34.198Z,9.61
2023-05-02T01:35:02.763Z,9.59
2023-05-02T01:37:31.963Z,9.58
2023-05-02T01:40:01.263Z,9.56
2023-05-02T01:42:30.635Z,9.58
2023-05-02T01:45:00.878Z,9.55
2023-05-02T01:47:30.843Z,9.48
2023-05-02T01:49:59.661Z,9.41
2023-05-02T01:52:28.733Z,9.24
2023-05-02T01:54:58.270Z,9.12
2023-05-02T01:57:29.333Z,9.05
2023-05-02T01:59:59.808Z,9.09
2023-05-02T02:02:33.384Z,9.19
2023-05-02T02:05:04.091Z,9.13
2023-05-02T02:07:32.299Z,9.00
2023-05-02T02:10:01.241Z,8.97
2023-05-02T02:12:30.650Z,8.92
2023-05-02T02:15:04.112Z,8.87
2023-05-02T02:17:37.777Z,8.81
2023-05-02T02:20:10.196Z,8.73
2023-05-02T02:22:40.260Z,8.67
2023-05-02T02:25:10.137Z,8.57
2023-05-02T02:27:38.477Z,8.55
2023-05-02T02:30:07.126Z,8.48
2023-05-02T02:32:36.575Z,8.37
2023-05-02T02:35:05.253Z,8.39
2023-05-02T02:37:34.195Z,8.35
2023-05-02T02:40:07.697Z,8.30
2023-05-02T02:42:40.713Z,8.21
2023-05-02T02:45:14.546Z,8.12
2023-05-02T02:47:50.222Z,8.06
2023-05-02T02:50:21.537Z,8.13
2023-05-02T02:52:54.701Z,8.26
2023-05-02T02:55:29.606Z,8.19
2023-05-02T02:58:00.178Z,8.13
2023-05-02T03:00:29.118Z,8.08
2023-05-02T03:02:59.228Z,8.06
2023-05-02T03:05:28.337Z,8.00
2023-05-02T03:08:00.129Z,7.89
2023-05-02T03:10:28.503Z,7.85
2023-05-02T03:12:56.495Z,7.81
2023-05-02T03:15:48.015Z,7.74
2023-05-02T03:18:17.912Z,7.68
2023-05-02T03:20:46.878Z,7.60
2023-05-02T03:23:15.395Z,7.57
2023-05-02T03:25:44.464Z,7.58
2023-05-02T03:28:17.409Z,7.56
2023-05-02T03:30:59.757Z,7.64
2023-05-02T03:33:31.280Z,7.54
2023-05-02T03:35:59.557Z,7.50
2023-05-02T03:38:30.287Z,7.52
2023-05-02T03:41:03.110Z,7.51
2023-05-02T03:43:31.938Z,7.47
2023-05-02T03:46:05.455Z,7.46
2023-05-02T03:48:35.062Z,7.53
2023-05-02T03:51:04.419Z,7.57
2023-05-02T03:53:39.954Z,7.61
2023-05-02T03:56:08.995Z,7.71
2023-05-02T03:58:47.263Z,7.81
2023-05-02T04:01:17.925Z,7.86
2023-05-02T04:03:51.530Z,7.91
2023-05-02T04:06:22.189Z,7.93
2023-05-02T04:08:59.431Z,7.97
2023-05-02T04:11:32.319Z,8.02
2023-05-02T04:14:00.762Z,8.09
2023-05-02T04:16:28.814Z,8.20
2023-05-02T04:18:58.113Z,8.24
2023-05-02T04:21:27.547Z,8.26
2023-05-02T04:23:56.049Z,8.30
2023-05-02T04:26:24.434Z,8.36
2023-05-02T04:29:01.112Z,8.40
2023-05-02T04:31:29.429Z,8.45
2023-05-02T04:33:59.056Z,8.52
2023-05-02T04:36:31.311Z,8.57
2023-05-02T04:38:59.280Z,8.63
2023-05-02T04:41:27.578Z,8.72
2023-05-02T04:44:02.942Z,8.74
2023-05-02T04:46:32.441Z,8.81
2023-05-02T04:49:02.168Z,8.88
2023-05-02T04:51:32.226Z,8.93
2023-05-02T04:54:01.613Z,8.98
2023-05-02T04:56:30.116Z,9.03
2023-05-02T04:58:58.224Z,9.05
2023-05-02T05:01:28.330Z,9.13
2023-05-02T05:03:57.615Z,9.20
2023-05-02T05:06:28.206Z,9.22
2023-05-02T05:08:57.907Z,9.34
2023-05-02T05:11:26.725Z,9.44
2023-05-02T05:13:55.332Z,9.55
2023-05-02T05:16:24.318Z,9.65
2023-05-02T05:18:53.983Z,9.75
2023-05-02T05:21:21.938Z,9.82
2023-05-02T05:23:52.619Z,9.87
2023-05-02T05:26:26.757Z,9.89
2023-05-02T05:28:55.914Z,9.90
2023-05-02T05:31:26.807Z,10.02
2023-05-02T05:34:00.987Z,10.09
2023-05-02T05:36:31.620Z,10.15
2023-05-02T05:39:01.268Z,10.30
2023-05-02T05:41:30.831Z,10.46
2023-05-02T05:44:05.905Z,10.54
2023-05-02T05:46:34.256Z,10.67
2023-05-02T05:49:04.105Z,10.80
2023-05-02T05:51:32.224Z,10.87
2023-05-02T05:54:02.931Z,10.91
2023-05-02T05:56:31.360Z,10.93
2023-05-02T05:59:08.476Z,10.96
2023-05-02T06:01:36.850Z,10.91
2023-05-02T06:04:07.220Z,10.96
2023-05-02T06:06:38.352Z,11.07
2023-05-02T06:09:09.046Z,11.19
2023-05-02T06:11:38.595Z,11.37
2023-05-02T06:14:08.200Z,11.63
2023-05-02T06:16:37.069Z,11.71
2023-05-02T06:19:05.335Z,11.61
2023-05-02T06:21:34.283Z,11.48
2023-05-02T06:24:02.521Z,11.41
2023-05-02T06:26:32.008Z,11.50
2023-05-02T06:28:59.950Z,11.73
2023-05-02T06:31:29.553Z,11.96
2023-05-02T06:33:58.122Z,12.50
2023-05-02T06:36:28.103Z,12.92
2023-05-02T06:38:56.449Z,13.08
2023-05-02T06:41:24.579Z,13.18
2023-05-02T06:43:53.967Z,13.20
2023-05-02T06:46:22.019Z,13.27
2023-05-02T06:48:50.028Z,13.33
2023-05-02T06:51:19.446Z,13.43
2023-05-02T06:53:47.805Z,13.57
2023-05-02T06:56:15.889Z,13.81
2023-05-02T06:58:44.429Z,13.87
2023-05-02T07:01:14.041Z,14.22
2023-05-02T07:03:42.177Z,14.38
2023-05-02T07:06:10.760Z,14.52
2023-05-02T07:08:39.264Z,14.43
2023-05-02T07:11:07.495Z,14.55
2023-05-02T07:13:35.583Z,14.83
2023-05-02T07:16:03.599Z,15.04
2023-05-02T07:18:33.008Z,15.15
2023-05-02T07:21:01.733Z,15.21
2023-05-02T07:23:29.935Z,15.08
2023-05-02T07:25:58.205Z,15.28
2023-05-02T07:28:26.561Z,15.46
2023-05-02T07:30:55.039Z,15.64
2023-05-02T07:33:23.891Z,15.63
2023-05-02T07:35:53.302Z,15.58
2023-05-02T07:38:21.841Z,15.72
2023-05-02T07:40:50.315Z,15.78
2023-05-02T07:43:18.758Z,16.34
2023-05-02T07:45:46.755Z,16.42
2023-05-02T07:48:14.904Z,16.32
2023-05-02T07:50:43.253Z,16.21
2023-05-02T07:53:12.558Z,16.21
2023-05-02T07:55:40.867Z,16.42
2023-05-02T07:58:11.727Z,16.85
2023-05-02T08:00:40.575Z,16.93
2023-05-02T08:03:09.236Z,16.75
2023-05-02T08:05:37.774Z,16.61
2023-05-02T08:08:06.688Z,16.48
2023-05-02T08:10:36.142Z,16.43
2023-05-02T08:13:04.448Z,17.29
2023-05-02T08:15:32.549Z,17.39
2023-05-02T08:18:01.049Z,17.67
2023-05-02T08:20:29.185Z,17.58
2023-05-02T08:22:59.830Z,17.34
2023-05-02T08:25:28.213Z,17.08
2023-05-02T08:27:57.503Z,16.63
2023-05-02T08:30:25.939Z,16.02
2023-05-02T08:32:54.107Z,15.90
2023-05-02T08:35:22.339Z,16.01
2023-05-02T08:37:50.377Z,15.95
2023-05-02T08:40:27.291Z,16.09
2023-05-02T08:43:07.766Z,15.92
2023-05-02T08:45:40.222Z,15.84
2023-05-02T08:48:10.645Z,16.01
2023-05-02T08:50:39.792Z,16.75
2023-05-02T08:53:08.407Z,16.76
2023-05-02T08:55:39.952Z,16.63
2023-05-02T08:58:13.239Z,16.71
2023-05-02T09:00:42.650Z,16.63
2023-05-02T09:03:22.743Z,16.17
2023-05-02T09:05:54.346Z,15.71
2023-05-02T09:08:25.222Z,15.34
2023-05-02T09:10:53.314Z,15.17
2023-05-02T09:13:36.236Z,15.23
2023-05-02T09:16:05.593Z,15.23
2023-05-02T09:18:34.807Z,15.30
2023-05-02T09:21:06.399Z,15.25
2023-05-02T09:23:38.315Z,15.12
2023-05-02T09:26:13.299Z,15.04
2023-05-02T09:28:43.722Z,15.00
2023-05-02T09:31:13.471Z,15.02
2023-05-02T09:33:42.146Z,15.01
2023-05-02T09:36:10.658Z,14.90
2023-05-02T09:38:39.475Z,15.25
2023-05-02T09:41:07.700Z,15.48
2023-05-02T09:43:35.656Z,15.72
2023-05-02T09:46:05.899Z,15.94
2023-05-02T09:48:34.909Z,16.04
2023-05-02T09:51:02.811Z,16.15
2023-05-02T09:53:30.848Z,16.52
2023-05-02T09:56:02.588Z,16.43
2023-05-02T09:58:31.877Z,16.50
2023-05-02T10:01:00.572Z,16.98
2023-05-02T10:03:32.043Z,17.09
2023-05-02T10:06:00.215Z,17.07
2023-05-02T10:08:29.480Z,17.62
2023-05-02T10:10:58.500Z,17.99
2023-05-02T10:13:32.116Z,17.54
2023-05-02T10:16:01.760Z,16.85
2023-05-02T10:18:34.677Z,16.75
2023-05-02T10:21:06.737Z,16.52
2023-05-02T10:23:35.564Z,16.60
2023-05-02T10:26:03.843Z,16.70
2023-05-02T10:28:32.497Z,17.18
2023-05-02T10:31:01.382Z,18.28
2023-05-02T10:33:35.172Z,18.89
2023-05-02T10:36:03.614Z,19.94
2023-05-02T10:38:32.313Z,19.66
2023-05-02T10:41:02.943Z,19.66
2023-05-02T10:43:32.619Z,19.71
2023-05-02T10:46:02.073Z,19.31
2023-05-02T10:48:30.585Z,19.23
2023-05-02T10:51:01.701Z,19.46
2023-05-02T10:53:31.306Z,19.19
2023-05-02T10:56:12.886Z,18.85
2023-05-02T10:58:41.135Z,18.84
2023-05-02T11:01:28.343Z,18.89
2023-05-02T11:03:58.265Z,18.92
2023-05-02T11:06:28.881Z,19.40
2023-05-02T11:09:11.868Z,19.91
2023-05-02T11:11:41.630Z,20.44
2023-05-02T11:14:10.518Z,20.37
2023-05-02T11:16:57.584Z,20.11
2023-05-02T11:19:26.049Z,19.61
2023-05-02T11:22:15.557Z,20.55
2023-05-02T11:24:44.844Z,20.89
2023-05-02T11:27:30.946Z,20.19
2023-05-02T11:29:59.963Z,19.78
2023-05-02T11:32:49.557Z,19.53
2023-05-02T11:35:18.835Z,19.37
2023-05-02T11:37:54.106Z,18.41
2023-05-02T11:40:22.392Z,18.10
2023-05-02T11:42:50.423Z,17.66
2023-05-02T11:45:18.688Z,17.23
2023-05-02T11:47:47.634Z,17.33
2023-05-02T11:50:15.898Z,18.83
2023-05-02T11:52:45.021Z,19.54
2023-05-02T11:55:16.666Z,20.75
2023-05-02T11:57:45.008Z,21.49
2023-05-02T12:00:14.148Z,22.05
2023-05-02T12:02:43.530Z,21.59
2023-05-02T12:05:12.620Z,22.14
2023-05-02T12:07:42.360Z,22.45
2023-05-02T12:10:11.090Z,22.07
2023-05-02T12:12:41.164Z,21.61
2023-05-02T12:15:10.155Z,22.03
2023-05-02T12:17:38.942Z,21.22
2023-05-02T12:20:09.332Z,20.25
2023-05-02T12:22:38.186Z,19.42
2023-05-02T12:25:07.580Z,19.32
2023-05-02T12:27:36.023Z,19.75
2023-05-02T12:30:06.376Z,20.33
2023-05-02T12:32:35.165Z,21.00
2023-05-02T12:35:04.244Z,20.60
2023-05-02T12:37:32.606Z,20.65
2023-05-02T12:40:01.093Z,21.18
2023-05-02T12:42:37.900Z,21.53
2023-05-02T12:45:17.644Z,20.69
2023-05-02T12:47:46.282Z,20.36
2023-05-02T12:50:14.951Z,20.46
2023-05-02T12:52:49.879Z,20.99
2023-05-02T12:55:18.268Z,21.19
2023-05-02T12:57:46.967Z,20.69
2023-05-02T13:00:18.212Z,21.08
2023-05-02T13:02:46.472Z,21.12
2023-05-02T13:05:17.480Z,21.27
2023-05-02T13:07:45.649Z,21.18
2023-05-02T13:10:21.184Z,21.52
2023-05-02T13:12:52.424Z,21.57
2023-05-02T13:15:24.987Z,21.54
2023-05-02T13:17:57.347Z,22.17
2023-05-02T13:20:36.717Z,21.55
2023-05-02T13:23:09.842Z,21.32
2023-05-02T13:25:39.868Z,21.72
2023-05-02T13:28:09.089Z,22.17
2023-05-02T13:30:38.812Z,21.83
2023-05-02T13:33:08.008Z,22.04
2023-05-02T13:35:36.049Z,20.86
2023-05-02T13:38:04.201Z,20.11
2023-05-02T13:40:35.022Z,19.59
2023-05-02T13:43:07.864Z,18.91
2023-05-02T13:45:39.307Z,18.60
2023-05-02T13:48:12.634Z,18.43
2023-05-02T13:50:44.599Z,20.06
2023-05-02T13:53:14.137Z,19.47
2023-05-02T13:55:57.650Z,19.31
2023-05-02T13:58:25.744Z,18.50
2023-05-02T14:00:57.039Z,18.39
2023-05-02T14:03:26.961Z,19.04
2023-05-02T14:05:55.646Z,20.41
2023-05-02T14:08:23.682Z,20.93
2023-05-02T14:10:51.750Z,22.07
2023-05-02T14:13:19.937Z,21.03
2023-05-02T14:15:48.628Z,20.41
2023-05-02T14:18:20.035Z,19.79
2023-05-02T14:20:52.141Z,19.18
2023-05-02T14:23:20.263Z,18.79
2023-05-02T14:25:48.591Z,18.62
2023-05-02T14:28:18.300Z,18.44
2023-05-02T14:30:46.385Z,18.17
2023-05-02T14:33:14.440Z,18.07
2023-05-02T14:35:42.863Z,18.35
2023-05-02T14:38:13.415Z,18.03
2023-05-02T14:40:41.434Z,18.21
2023-05-02T14:43:09.700Z,18.33
2023-05-02T14:45:37.954Z,18.34
2023-05-02T14:48:06.799Z,18.41
2023-05-02T14:50:34.855Z,18.67
2023-05-02T14:53:03.064Z,18.81
2023-05-02T14:55:36.703Z,18.57
2023-05-02T14:58:05.721Z,18.87
2023-05-02T15:00:34.679Z,18.96
2023-05-02T15:03:04.497Z,18.36
2023-05-02T15:05:35.061Z,17.75
2023-05-02T15:08:03.506Z,17.74
2023-05-02T15:10:34.528Z,17.79
2023-05-02T15:14:31.747Z,17.69
2023-05-02T15:17:00.736Z,17.81
2023-05-02T15:19:29.331Z,17.72
2023-05-02T15:21:58.448Z,17.72
2023-05-02T15:24:26.858Z,17.86
2023-05-02T15:26:55.057Z,18.32
2023-05-02T15:29:23.450Z,18.70
2023-05-02T15:31:57.188Z,18.90
2023-05-02T15:34:36.816Z,18.57
2023-05-02T15:37:06.294Z,18.88
2023-05-02T15:39:39.415Z,18.67
2023-05-02T15:42:12.261Z,18.84
2023-05-02T15:44:43.574Z,19.03
2023-05-02T15:47:13.140Z,18.83
2023-05-02T15:49:43.979Z,18.98
2023-05-02T15:52:12.588Z,18.96
2023-05-02T15:54:40.924Z,19.13
2023-05-02T15:57:11.403Z,18.63
2023-05-02T15:59:44.895Z,18.36
2023-05-02T16:02:15.942Z,18.10
2023-05-02T16:04:52.243Z,18.20
2023-05-02T16:07:23.149Z,18.38
2023-05-02T16:09:52.345Z,18.53
2023-05-02T16:12:20.598Z,18.45
2023-05-02T16:14:48.750Z,18.60
2023-05-02T16:17:18.433Z,18.58
2023-05-02T16:19:47.026Z,18.40
2023-05-02T16:22:15.469Z,18.18
2023-05-02T16:24:43.694Z,18.45
2023-05-02T16:27:12.048Z,18.51
2023-05-02T16:29:42.318Z,18.31
2023-05-02T16:32:10.484Z,18.17
2023-05-02T16:34:40.422Z,17.99
2023-05-02T16:37:09.396Z,18.02
2023-05-02T16:39:37.849Z,18.16
2023-05-02T16:42:06.800Z,17.77
2023-05-02T16:44:35.217Z,17.62
2023-05-02T16:47:03.592Z,17.44
2023-05-02T16:49:31.975Z,17.49
2023-05-02T16:52:02.017Z,17.34
2023-05-02T16:54:30.629Z,17.05
2023-05-02T16:57:02.523Z,17.08
2023-05-02T16:59:31.018Z,16.93
2023-05-02T17:01:59.257Z,16.85
2023-05-02T17:04:27.595Z,16.90
2023-05-02T17:06:56.689Z,16.69
2023-05-02T17:09:26.264Z,16.54
2023-05-02T17:12:00.973Z,16.56
2023-05-02T17:14:39.546Z,16.41
2023-05-02T17:17:08.692Z,16.24
2023-05-02T17:19:49.904Z,16.24
2023-05-02T17:22:21.380Z,16.07
2023-05-02T17:25:06.433Z,16.06
2023-05-02T17:27:55.818Z,15.95
2023-05-02T17:30:26.644Z,15.82
2023-05-02T17:32:55.812Z,15.72
2023-05-02T17:35:32.614Z,15.73
2023-05-02T17:38:06.524Z,15.71
2023-05-02T17:40:42.009Z,15.48
2023-05-02T17:43:23.339Z,15.30
2023-05-02T17:45:56.041Z,15.22
2023-05-02T17:48:28.280Z,15.08
2023-05-02T17:50:59.363Z,15.04
2023-05-02T17:53:29.487Z,14.94
2023-05-02T17:56:06.263Z,14.74
2023-05-02T17:58:40.813Z,14.75
2023-05-02T18:01:13.495Z,14.56
2023-05-02T18:03:45.249Z,14.48
2023-05-02T18:06:19.452Z,14.33
2023-05-02T18:08:50.612Z,14.30
2023-05-02T18:11:24.077Z,14.24
2023-05-02T18:14:01.235Z,14.17
2023-05-02T18:16:36.354Z,14.13
2023-05-02T18:19:08.109Z,14.11
2023-05-02T18:21:41.142Z,13.97
2023-05-02T18:24:16.799Z,13.81
2023-05-02T18:26:49.242Z,13.63
2023-05-02T18:29:17.868Z,13.54
2023-05-02T18:31:52.238Z,13.46
2023-05-02T18:34:25.324Z,13.40
2023-05-02T18:36:56.547Z,13.36
2023-05-02T18:39:24.955Z,13.26
2023-05-02T18:41:54.763Z,13.17
2023-05-02T18:44:22.851Z,13.07
2023-05-02T18:46:54.253Z,13.17
2023-05-02T18:49:28.332Z,12.99
2023-05-02T18:52:03.428Z,13.03
2023-05-02T18:54:33.590Z,12.94
2023-05-02T18:57:05.257Z,12.78
2023-05-02T18:59:39.232Z,12.66
2023-05-02T19:02:08.034Z,12.59
2023-05-02T19:04:43.828Z,12.50
2023-05-02T19:07:12.913Z,12.50
2023-05-02T19:09:43.537Z,12.32
2023-05-02T19:12:18.272Z,12.25
2023-05-02T19:14:47.800Z,12.12
2023-05-02T19:17:19.026Z,12.12
2023-05-02T19:19:52.329Z,12.13
2023-05-02T19:22:23.658Z,11.98
2023-05-02T19:24:54.289Z,11.98
2023-05-02T19:27:28.161Z,11.92
2023-05-02T19:30:02.629Z,11.96
2023-05-02T19:32:30.912Z,11.76
2023-05-02T19:34:59.397Z,11.71
2023-05-02T19:37:34.068Z,11.68
2023-05-02T19:40:05.180Z,11.55
2023-05-02T19:42:39.659Z,11.46
2023-05-02T19:45:14.026Z,11.64
2023-05-02T19:47:43.896Z,11.41
2023-05-02T19:50:16.170Z,11.29
2023-05-02T19:52:47.622Z,11.17
2023-05-02T19:55:16.416Z,11.16
2023-05-02T19:57:45.951Z,11.28
2023-05-02T20:00:15.355Z,11.43
2023-05-02T20:02:44.419Z,11.30
2023-05-02T20:05:12.918Z,11.36
2023-05-02T20:07:43.974Z,11.36
2023-05-02T20:10:12.380Z,11.32
2023-05-02T20:12:44.903Z,11.32
2023-05-02T20:15:17.822Z,11.32
2023-05-02T20:17:48.643Z,11.18
2023-05-02T20:20:16.893Z,11.19
2023-05-02T20:22:48.618Z,11.19
2023-05-02T20:25:20.055Z,11.12
2023-05-02T20:27:48.545Z,11.09
2023-05-02T20:30:20.472Z,10.98
2023-05-02T20:32:51.455Z,10.83
2023-05-02T20:35:20.805Z,10.79
2023-05-02T20:37:50.841Z,10.82
2023-05-02T20:40:20.232Z,10.65
2023-05-02T20:42:48.479Z,10.67
2023-05-02T20:45:22.085Z,10.73
2023-05-02T20:47:50.589Z,10.76
2023-05-02T20:50:19.333Z,10.63
2023-05-02T20:52:47.885Z,10.49
2023-05-02T20:55:16.208Z,10.36
2023-05-02T20:57:45.957Z,10.31
2023-05-02T21:00:19.728Z,10.17
2023-05-02T21:02:48.059Z,10.12
2023-05-02T21:05:16.452Z,10.05
2023-05-02T21:07:45.093Z,10.04
2023-05-02T21:10:13.820Z,10.08
2023-05-02T21:12:42.129Z,10.23
2023-05-02T21:15:10.550Z,10.24
2023-05-02T21:17:42.433Z,10.24
2023-05-02T21:20:11.399Z,10.27
2023-05-02T21:22:39.877Z,10.28
2023-05-02T21:25:08.779Z,10.20
2023-05-02T21:27:36.949Z,10.16
2023-05-02T21:30:06.314Z,10.14
2023-05-02T21:32:34.695Z,10.03
2023-05-02T21:35:04.806Z,9.93
2023-05-02T21:37:33.034Z,9.94
2023-05-02T21:40:01.675Z,9.74
2023-05-02T21:42:29.975Z,9.61
2023-05-02T21:44:58.421Z,9.54
2023-05-02T21:47:26.868Z,9.30
2023-05-02T21:49:58.560Z,9.13
2023-05-02T21:52:39.262Z,8.99
2023-05-02T21:55:08.449Z,8.96
2023-05-02T21:57:40.754Z,9.07
2023-05-02T22:00:13.054Z,8.91
2023-05-02T22:02:43.489Z,8.89
2023-05-02T22:05:13.735Z,8.91
2023-05-02T22:07:43.399Z,8.84
2023-05-02T22:10:14.732Z,8.76
2023-05-02T22:12:42.991Z,8.75
2023-05-02T22:15:12.874Z,8.71
2023-05-02T22:17:43.268Z,8.80
2023-05-02T22:20:13.230Z,8.79
2023-05-02T22:22:45.698Z,8.85
2023-05-02T22:25:13.968Z,8.67
2023-05-02T22:27:42.456Z,8.56
2023-05-02T22:30:14.418Z,8.51
2023-05-02T22:32:42.693Z,8.46
2023-05-02T22:35:11.652Z,8.58
2023-05-02T22:37:41.356Z,8.59
2023-05-02T22:40:12.657Z,8.59
2023-05-02T22:42:41.465Z,8.64
2023-05-02T22:45:12.279Z,8.53
2023-05-02T22:47:40.781Z,8.48
2023-05-02T22:50:11.776Z,8.44
2023-05-02T22:52:40.043Z,8.35
2023-05-02T22:55:10.096Z,8.29
2023-05-02T22:57:40.465Z,8.32
2023-05-02T23:00:11.123Z,8.28
2023-05-02T23:02:40.869Z,8.24
2023-05-02T23:05:10.855Z,8.32
2023-05-02T23:07:40.416Z,8.16
2023-05-02T23:10:10.157Z,8.12
2023-05-02T23:12:39.959Z,8.12
2023-05-02T23:15:11.926Z,8.03
2023-05-02T23:17:45.516Z,7.90
2023-05-02T23:20:13.935Z,7.93
2023-05-02T23:22:46.761Z,8.08
2023-05-02T23:25:16.198Z,8.10
2023-05-02T23:27:46.682Z,7.96
2023-05-02T23:30:17.290Z,7.89
2023-05-02T23:32:46.415Z,7.92
2023-05-02T23:35:14.738Z,7.95
2023-05-02T23:37:44.103Z,7.93
2023-05-02T23:40:13.389Z,7.77
2023-05-02T23:42:43.492Z,7.64
2023-05-02T23:45:14.090Z,7.53
2023-05-02T23:47:42.690Z,7.54
2023-05-02T23:50:12.143Z,7.44
2023-05-02T23:52:40.489Z,7.53
2023-05-02T23:55:10.773Z,7.53
2023-05-02T23:57:39.050Z,7.58
